sensor_id;sensor_type;location;lat;lon;timestamp;P1;durP1;ratioP1;P2;durP2;ratioP2
52608;SDS011;38503;48.544;12.142;2022-09-30T00:01:21;17.63;;;15.80;;
52608;SDS011;38503;48.544;12.142;2022-09-30T00:03:52;18.13;;;15.80;;
52608;SDS011;38503;48.544;12.142;2022-09-30T00:06:20;17.23;;;15.43;;
52608;SDS011;38503;48.544;12.142;2022-09-30T00:08:48;18.23;;;15.17;;
52608;SDS011;38503;48.544;12.142;2022-09-30T00:11:16;18.30;;;15.70;;
52608;SDS011;38503;48.544;12.142;2022-09-30T00:13:47;19.10;;;15.70;;
52608;SDS011;38503;48.544;12.142;2022-09-30T00:16:16;23.80;;;16.30;;
52608;SDS011;38503;48.544;12.142;2022-09-30T00:18:44;18.27;;;16.27;;
52608;SDS011;38503;48.544;12.142;2022-09-30T00:21:11;17.57;;;15.77;;
52608;SDS011;38503;48.544;12.142;2022-09-30T00:23:41;20.67;;;17.70;;
52608;SDS011;38503;48.544;12.142;2022-09-30T00:26:13;20.57;;;18.13;;
52608;SDS011;38503;48.544;12.142;2022-09-30T00:28:42;20.40;;;18.23;;
52608;SDS011;38503;48.544;12.142;2022-09-30T00:31:14;19.30;;;17.20;;
52608;SDS011;38503;48.544;12.142;2022-09-30T00:33:42;20.80;;;17.63;;
52608;SDS011;38503;48.544;12.142;2022-09-30T00:36:09;19.37;;;17.23;;
52608;SDS011;38503;48.544;12.142;2022-09-30T00:38:36;19.30;;;17.13;;
52608;SDS011;38503;48.544;12.142;2022-09-30T00:41:03;21.70;;;17.73;;
52608;SDS011;38503;48.544;12.142;2022-09-30T00:48:59;20.87;;;18.67;;
52608;SDS011;38503;48.544;12.142;2022-09-30T00:51:37;25.70;;;19.77;;
52608;SDS011;38503;48.544;12.142;2022-09-30T00:54:12;21.37;;;18.77;;
52608;SDS011;38503;48.544;12.142;2022-09-30T00:56:43;20.47;;;18.37;;
52608;SDS011;38503;48.544;12.142;2022-09-30T00:59:47;21.77;;;18.50;;
52608;SDS011;38503;48.544;12.142;2022-09-30T01:02:10;21.03;;;18.80;;
52608;SDS011;38503;48.544;12.142;2022-09-30T01:04:38;21.80;;;19.37;;
52608;SDS011;38503;48.544;12.142;2022-09-30T01:07:07;24.60;;;19.17;;
52608;SDS011;38503;48.544;12.142;2022-09-30T01:09:35;23.50;;;19.47;;
52608;SDS011;38503;48.544;12.142;2022-09-30T01:12:05;21.93;;;18.63;;
52608;SDS011;38503;48.544;12.142;2022-09-30T01:14:34;18.57;;;16.43;;
52608;SDS011;38503;48.544;12.142;2022-09-30T01:28:25;22.37;;;18.57;;
52608;SDS011;38503;48.544;12.142;2022-09-30T01:39:24;20.27;;;18.17;;
52608;SDS011;38503;48.544;12.142;2022-09-30T01:45:18;19.50;;;17.33;;
52608;SDS011;38503;48.544;12.142;2022-09-30T01:53:40;19.97;;;17.83;;
52608;SDS011;38503;48.544;12.142;2022-09-30T01:56:23;20.90;;;18.77;;
52608;SDS011;38503;48.544;12.142;2022-09-30T01:59:06;19.90;;;17.80;;
52608;SDS011;38503;48.544;12.142;2022-09-30T02:04:26;19.50;;;17.40;;
52608;SDS011;38503;48.544;12.142;2022-09-30T02:07:00;20.13;;;17.37;;
52608;SDS011;38503;48.544;12.142;2022-09-30T02:09:37;19.77;;;17.67;;
52608;SDS011;38503;48.544;12.142;2022-09-30T02:12:13;20.83;;;16.70;;
52608;SDS011;38503;48.544;12.142;2022-09-30T02:14:52;18.87;;;16.67;;
52608;SDS011;38503;48.544;12.142;2022-09-30T02:17:28;21.43;;;17.67;;
52608;SDS011;38503;48.544;12.142;2022-09-30T02:20:04;17.50;;;15.73;;
52608;SDS011;38503;48.544;12.142;2022-09-30T02:22:41;18.60;;;16.30;;
52608;SDS011;38503;48.544;12.142;2022-09-30T02:25:14;17.60;;;15.60;;
52608;SDS011;38503;48.544;12.142;2022-09-30T02:27:48;18.10;;;15.93;;
52608;SDS011;38503;48.544;12.142;2022-09-30T02:30:20;17.90;;;15.97;;
52608;SDS011;38503;48.544;12.142;2022-09-30T02:33:00;19.37;;;16.80;;
52608;SDS011;38503;48.544;12.142;2022-09-30T02:35:35;18.47;;;15.63;;
52608;SDS011;38503;48.544;12.142;2022-09-30T02:38:11;17.30;;;15.60;;
52608;SDS011;38503;48.544;12.142;2022-09-30T02:43:22;18.47;;;16.53;;
52608;SDS011;38503;48.544;12.142;2022-09-30T02:48:45;18.60;;;15.90;;
52608;SDS011;38503;48.544;12.142;2022-09-30T02:54:04;21.20;;;15.80;;
52608;SDS011;38503;48.544;12.142;2022-09-30T02:56:40;18.00;;;16.10;;
52608;SDS011;38503;48.544;12.142;2022-09-30T02:59:14;20.30;;;16.47;;
52608;SDS011;38503;48.544;12.142;2022-09-30T03:01:41;17.77;;;15.87;;
52608;SDS011;38503;48.544;12.142;2022-09-30T03:04:10;18.60;;;16.60;;
52608;SDS011;38503;48.544;12.142;2022-09-30T03:06:40;17.30;;;15.07;;
52608;SDS011;38503;48.544;12.142;2022-09-30T03:09:07;19.93;;;17.20;;
52608;SDS011;38503;48.544;12.142;2022-09-30T03:11:34;30.57;;;19.73;;
52608;SDS011;38503;48.544;12.142;2022-09-30T03:17:01;21.67;;;19.27;;
52608;SDS011;38503;48.544;12.142;2022-09-30T03:22:57;24.33;;;21.13;;
52608;SDS011;38503;48.544;12.142;2022-09-30T03:31:33;22.20;;;19.60;;
52608;SDS011;38503;48.544;12.142;2022-09-30T03:34:14;23.67;;;20.50;;
52608;SDS011;38503;48.544;12.142;2022-09-30T03:36:57;26.40;;;21.73;;
52608;SDS011;38503;48.544;12.142;2022-09-30T03:42:03;23.87;;;21.27;;
52608;SDS011;38503;48.544;12.142;2022-09-30T03:44:32;23.40;;;20.90;;
52608;SDS011;38503;48.544;12.142;2022-09-30T03:47:16;24.93;;;21.43;;
52608;SDS011;38503;48.544;12.142;2022-09-30T03:49:45;23.40;;;20.73;;
52608;SDS011;38503;48.544;12.142;2022-09-30T03:52:16;23.70;;;20.83;;
52608;SDS011;38503;48.544;12.142;2022-09-30T03:54:48;23.67;;;20.47;;
52608;SDS011;38503;48.544;12.142;2022-09-30T03:57:17;22.47;;;19.37;;
52608;SDS011;38503;48.544;12.142;2022-09-30T03:59:44;21.37;;;19.07;;
52608;SDS011;38503;48.544;12.142;2022-09-30T04:02:11;22.27;;;19.60;;
52608;SDS011;38503;48.544;12.142;2022-09-30T04:04:41;24.03;;;19.13;;
52608;SDS011;38503;48.544;12.142;2022-09-30T04:07:08;24.40;;;19.47;;
52608;SDS011;38503;48.544;12.142;2022-09-30T04:09:35;21.87;;;19.57;;
52608;SDS011;38503;48.544;12.142;2022-09-30T04:12:03;21.10;;;18.90;;
52608;SDS011;38503;48.544;12.142;2022-09-30T04:14:30;21.70;;;19.23;;
52608;SDS011;38503;48.544;12.142;2022-09-30T04:16:57;23.60;;;18.37;;
52608;SDS011;38503;48.544;12.142;2022-09-30T04:19:24;20.73;;;17.93;;
52608;SDS011;38503;48.544;12.142;2022-09-30T04:21:51;20.40;;;18.30;;
52608;SDS011;38503;48.544;12.142;2022-09-30T04:24:19;23.40;;;18.40;;
52608;SDS011;38503;48.544;12.142;2022-09-30T04:26:46;19.17;;;17.00;;
52608;SDS011;38503;48.544;12.142;2022-09-30T04:29:14;20.57;;;17.03;;
52608;SDS011;38503;48.544;12.142;2022-09-30T04:31:41;21.27;;;17.30;;
52608;SDS011;38503;48.544;12.142;2022-09-30T04:34:08;19.10;;;17.00;;
52608;SDS011;38503;48.544;12.142;2022-09-30T04:36:37;19.87;;;17.77;;
52608;SDS011;38503;48.544;12.142;2022-09-30T04:39:04;19.13;;;17.03;;
52608;SDS011;38503;48.544;12.142;2022-09-30T04:41:31;18.97;;;16.97;;
52608;SDS011;38503;48.544;12.142;2022-09-30T04:43:59;21.57;;;18.10;;
52608;SDS011;38503;48.544;12.142;2022-09-30T04:46:32;19.37;;;17.30;;
52608;SDS011;38503;48.544;12.142;2022-09-30T04:49:02;19.07;;;16.50;;
52608;SDS011;38503;48.544;12.142;2022-09-30T04:51:34;19.63;;;17.07;;
52608;SDS011;38503;48.544;12.142;2022-09-30T04:54:01;18.80;;;16.80;;
52608;SDS011;38503;48.544;12.142;2022-09-30T04:56:28;18.27;;;16.37;;
52608;SDS011;38503;48.544;12.142;2022-09-30T04:58:55;19.40;;;15.83;;
52608;SDS011;38503;48.544;12.142;2022-09-30T05:01:22;19.73;;;16.53;;
52608;SDS011;38503;48.544;12.142;2022-09-30T05:03:49;20.37;;;15.53;;
52608;SDS011;38503;48.544;12.142;2022-09-30T05:06:16;18.97;;;15.67;;
52608;SDS011;38503;48.544;12.142;2022-09-30T05:08:43;18.70;;;16.70;;
52608;SDS011;38503;48.544;12.142;2022-09-30T05:11:20;19.03;;;16.93;;
52608;SDS011;38503;48.544;12.142;2022-09-30T05:13:48;20.17;;;18.00;;
52608;SDS011;38503;48.544;12.142;2022-09-30T05:16:16;20.27;;;18.17;;
52608;SDS011;38503;48.544;12.142;2022-09-30T05:18:44;19.87;;;17.53;;
52608;SDS011;38503;48.544;12.142;2022-09-30T05:21:12;19.90;;;17.80;;
52608;SDS011;38503;48.544;12.142;2022-09-30T05:23:41;32.50;;;28.03;;
52608;SDS011;38503;48.544;12.142;2022-09-30T05:26:08;27.17;;;22.20;;
52608;SDS011;38503;48.544;12.142;2022-09-30T05:28:38;22.67;;;18.20;;
52608;SDS011;38503;48.544;12.142;2022-09-30T05:31:06;20.33;;;18.23;;
52608;SDS011;38503;48.544;12.142;2022-09-30T05:33:33;22.50;;;18.57;;
52608;SDS011;38503;48.544;12.142;2022-09-30T05:36:02;21.63;;;17.57;;
52608;SDS011;38503;48.544;12.142;2022-09-30T05:38:33;23.03;;;19.13;;
52608;SDS011;38503;48.544;12.142;2022-09-30T05:41:06;22.07;;;17.27;;
52608;SDS011;38503;48.544;12.142;2022-09-30T05:43:37;22.30;;;19.03;;
52608;SDS011;38503;48.544;12.142;2022-09-30T05:46:04;20.67;;;17.67;;
52608;SDS011;38503;48.544;12.142;2022-09-30T05:48:32;19.60;;;17.57;;
52608;SDS011;38503;48.544;12.142;2022-09-30T05:50:59;20.63;;;17.97;;
52608;SDS011;38503;48.544;12.142;2022-09-30T05:53:27;21.23;;;17.77;;
52608;SDS011;38503;48.544;12.142;2022-09-30T05:55:55;20.20;;;17.80;;
52608;SDS011;38503;48.544;12.142;2022-09-30T05:58:22;21.90;;;16.23;;
52608;SDS011;38503;48.544;12.142;2022-09-30T06:00:49;19.10;;;16.63;;
52608;SDS011;38503;48.544;12.142;2022-09-30T06:03:16;20.53;;;17.43;;
52608;SDS011;38503;48.544;12.142;2022-09-30T06:05:44;20.40;;;16.53;;
52608;SDS011;38503;48.544;12.142;2022-09-30T06:08:11;18.33;;;16.43;;
52608;SDS011;38503;48.544;12.142;2022-09-30T06:10:40;19.53;;;17.53;;
52608;SDS011;38503;48.544;12.142;2022-09-30T06:13:08;17.30;;;15.30;;
52608;SDS011;38503;48.544;12.142;2022-09-30T06:15:35;19.80;;;16.53;;
52608;SDS011;38503;48.544;12.142;2022-09-30T06:18:04;17.97;;;15.00;;
52608;SDS011;38503;48.544;12.142;2022-09-30T06:20:32;19.63;;;16.00;;
52608;SDS011;38503;48.544;12.142;2022-09-30T06:22:59;17.73;;;15.83;;
52608;SDS011;38503;48.544;12.142;2022-09-30T06:25:27;21.07;;;15.23;;
52608;SDS011;38503;48.544;12.142;2022-09-30T06:27:55;19.70;;;15.73;;
52608;SDS011;38503;48.544;12.142;2022-09-30T06:30:22;18.67;;;15.47;;
52608;SDS011;38503;48.544;12.142;2022-09-30T06:32:49;16.40;;;14.63;;
52608;SDS011;38503;48.544;12.142;2022-09-30T06:35:17;18.20;;;15.67;;
52608;SDS011;38503;48.544;12.142;2022-09-30T06:37:49;24.97;;;20.93;;
52608;SDS011;38503;48.544;12.142;2022-09-30T06:40:16;21.97;;;19.03;;
52608;SDS011;38503;48.544;12.142;2022-09-30T06:42:43;19.90;;;17.40;;
52608;SDS011;38503;48.544;12.142;2022-09-30T06:45:10;18.50;;;15.73;;
52608;SDS011;38503;48.544;12.142;2022-09-30T06:47:48;17.33;;;14.90;;
52608;SDS011;38503;48.544;12.142;2022-09-30T06:50:25;15.33;;;13.77;;
52608;SDS011;38503;48.544;12.142;2022-09-30T06:52:56;18.40;;;15.97;;
52608;SDS011;38503;48.544;12.142;2022-09-30T06:55:24;16.50;;;14.80;;
52608;SDS011;38503;48.544;12.142;2022-09-30T06:57:53;16.67;;;14.67;;
52608;SDS011;38503;48.544;12.142;2022-09-30T07:00:21;16.67;;;14.90;;
52608;SDS011;38503;48.544;12.142;2022-09-30T07:02:48;15.77;;;14.17;;
52608;SDS011;38503;48.544;12.142;2022-09-30T07:05:16;16.40;;;14.70;;
52608;SDS011;38503;48.544;12.142;2022-09-30T07:07:43;15.73;;;14.13;;
52608;SDS011;38503;48.544;12.142;2022-09-30T07:10:10;14.83;;;13.23;;
52608;SDS011;38503;48.544;12.142;2022-09-30T07:12:38;17.03;;;13.83;;
52608;SDS011;38503;48.544;12.142;2022-09-30T07:15:06;14.77;;;13.27;;
52608;SDS011;38503;48.544;12.142;2022-09-30T07:17:38;15.63;;;13.57;;
52608;SDS011;38503;48.544;12.142;2022-09-30T07:20:06;15.47;;;12.90;;
52608;SDS011;38503;48.544;12.142;2022-09-30T07:22:33;14.77;;;13.17;;
52608;SDS011;38503;48.544;12.142;2022-09-30T07:25:00;14.00;;;12.60;;
52608;SDS011;38503;48.544;12.142;2022-09-30T07:27:30;15.37;;;13.40;;
52608;SDS011;38503;48.544;12.142;2022-09-30T07:29:57;14.73;;;13.13;;
52608;SDS011;38503;48.544;12.142;2022-09-30T07:32:45;14.63;;;13.00;;
52608;SDS011;38503;48.544;12.142;2022-09-30T07:35:12;17.80;;;13.27;;
52608;SDS011;38503;48.544;12.142;2022-09-30T07:37:39;16.47;;;12.77;;
52608;SDS011;38503;48.544;12.142;2022-09-30T07:40:07;15.80;;;14.07;;
52608;SDS011;38503;48.544;12.142;2022-09-30T07:42:38;15.00;;;13.50;;
52608;SDS011;38503;48.544;12.142;2022-09-30T07:45:11;15.37;;;13.70;;
52608;SDS011;38503;48.544;12.142;2022-09-30T07:47:41;13.93;;;12.50;;
52608;SDS011;38503;48.544;12.142;2022-09-30T07:50:08;16.67;;;13.73;;
52608;SDS011;38503;48.544;12.142;2022-09-30T07:52:36;17.70;;;14.60;;
52608;SDS011;38503;48.544;12.142;2022-09-30T07:55:03;14.77;;;12.87;;
52608;SDS011;38503;48.544;12.142;2022-09-30T07:57:30;15.83;;;13.93;;
52608;SDS011;38503;48.544;12.142;2022-09-30T07:59:56;14.80;;;13.30;;
52608;SDS011;38503;48.544;12.142;2022-09-30T08:02:23;13.30;;;11.93;;
52608;SDS011;38503;48.544;12.142;2022-09-30T08:04:50;14.97;;;13.20;;
52608;SDS011;38503;48.544;12.142;2022-09-30T08:07:17;15.07;;;13.57;;
52608;SDS011;38503;48.544;12.142;2022-09-30T08:09:44;15.27;;;12.73;;
52608;SDS011;38503;48.544;12.142;2022-09-30T08:12:12;13.47;;;12.17;;
52608;SDS011;38503;48.544;12.142;2022-09-30T08:14:38;14.50;;;13.03;;
52608;SDS011;38503;48.544;12.142;2022-09-30T08:17:05;17.00;;;15.20;;
52608;SDS011;38503;48.544;12.142;2022-09-30T08:19:32;13.03;;;11.43;;
52608;SDS011;38503;48.544;12.142;2022-09-30T08:22:00;12.33;;;11.10;;
52608;SDS011;38503;48.544;12.142;2022-09-30T08:24:32;19.03;;;12.97;;
52608;SDS011;38503;48.544;12.142;2022-09-30T08:26:59;13.27;;;11.90;;
52608;SDS011;38503;48.544;12.142;2022-09-30T08:29:26;12.63;;;11.27;;
52608;SDS011;38503;48.544;12.142;2022-09-30T08:32:13;19.10;;;12.90;;
52608;SDS011;38503;48.544;12.142;2022-09-30T08:34:40;10.70;;;9.70;;
52608;SDS011;38503;48.544;12.142;2022-09-30T08:37:07;11.33;;;9.37;;
52608;SDS011;38503;48.544;12.142;2022-09-30T08:39:36;9.90;;;8.97;;
52608;SDS011;38503;48.544;12.142;2022-09-30T08:42:14;9.80;;;8.73;;
52608;SDS011;38503;48.544;12.142;2022-09-30T08:50:34;10.63;;;9.13;;
52608;SDS011;38503;48.544;12.142;2022-09-30T08:53:36;7.83;;;7.13;;
52608;SDS011;38503;48.544;12.142;2022-09-30T08:56:10;8.13;;;7.33;;
52608;SDS011;38503;48.544;12.142;2022-09-30T08:58:42;8.80;;;6.80;;
52608;SDS011;38503;48.544;12.142;2022-09-30T09:01:14;9.57;;;8.67;;
52608;SDS011;38503;48.544;12.142;2022-09-30T09:03:58;7.97;;;7.27;;
52608;SDS011;38503;48.544;12.142;2022-09-30T09:20:56;8.30;;;7.50;;
52608;SDS011;38503;48.544;12.142;2022-09-30T09:23:25;10.57;;;8.17;;
52608;SDS011;38503;48.544;12.142;2022-09-30T09:25:56;8.47;;;7.00;;
52608;SDS011;38503;48.544;12.142;2022-09-30T09:28:29;6.60;;;6.07;;
52608;SDS011;38503;48.544;12.142;2022-09-30T09:31:07;6.47;;;5.83;;
52608;SDS011;38503;48.544;12.142;2022-09-30T09:33:39;6.97;;;5.80;;
52608;SDS011;38503;48.544;12.142;2022-09-30T09:36:21;6.97;;;6.27;;
52608;SDS011;38503;48.544;12.142;2022-09-30T09:39:02;6.93;;;6.23;;
52608;SDS011;38503;48.544;12.142;2022-09-30T09:44:45;6.73;;;5.93;;
52608;SDS011;38503;48.544;12.142;2022-09-30T09:47:39;6.83;;;6.20;;
52608;SDS011;38503;48.544;12.142;2022-09-30T09:50:15;5.87;;;5.37;;
52608;SDS011;38503;48.544;12.142;2022-09-30T09:52:51;6.10;;;5.50;;
52608;SDS011;38503;48.544;12.142;2022-09-30T09:55:33;6.23;;;5.63;;
52608;SDS011;38503;48.544;12.142;2022-09-30T09:58:09;6.33;;;5.73;;
52608;SDS011;38503;48.544;12.142;2022-09-30T10:00:42;5.83;;;5.30;;
52608;SDS011;38503;48.544;12.142;2022-09-30T10:03:24;6.17;;;5.67;;
52608;SDS011;38503;48.544;12.142;2022-09-30T10:08:39;6.33;;;5.67;;
52608;SDS011;38503;48.544;12.142;2022-09-30T10:11:23;6.17;;;5.67;;
52608;SDS011;38503;48.544;12.142;2022-09-30T10:13:56;7.50;;;5.70;;
52608;SDS011;38503;48.544;12.142;2022-09-30T10:18:54;6.10;;;5.33;;
52608;SDS011;38503;48.544;12.142;2022-09-30T10:21:25;6.57;;;5.47;;
52608;SDS011;38503;48.544;12.142;2022-09-30T10:23:54;7.77;;;5.70;;
52608;SDS011;38503;48.544;12.142;2022-09-30T10:26:23;7.57;;;6.87;;
52608;SDS011;38503;48.544;12.142;2022-09-30T10:28:58;7.50;;;5.80;;
52608;SDS011;38503;48.544;12.142;2022-09-30T10:31:41;6.53;;;5.23;;
52608;SDS011;38503;48.544;12.142;2022-09-30T10:34:21;9.07;;;5.67;;
52608;SDS011;38503;48.544;12.142;2022-09-30T10:37:05;7.07;;;5.30;;
52608;SDS011;38503;48.544;12.142;2022-09-30T10:39:41;7.20;;;6.50;;
52608;SDS011;38503;48.544;12.142;2022-09-30T10:47:23;8.03;;;6.90;;
52608;SDS011;38503;48.544;12.142;2022-09-30T10:49:53;8.40;;;6.93;;
52608;SDS011;38503;48.544;12.142;2022-09-30T10:52:30;9.80;;;7.40;;
52608;SDS011;38503;48.544;12.142;2022-09-30T10:55:07;7.70;;;6.90;;
52608;SDS011;38503;48.544;12.142;2022-09-30T10:57:51;7.93;;;7.13;;
52608;SDS011;38503;48.544;12.142;2022-09-30T11:00:20;7.67;;;6.97;;
52608;SDS011;38503;48.544;12.142;2022-09-30T11:03:51;8.33;;;7.10;;
52608;SDS011;38503;48.544;12.142;2022-09-30T11:05:50;8.47;;;7.23;;
52608;SDS011;38503;48.544;12.142;2022-09-30T11:08:32;10.53;;;7.07;;
52608;SDS011;38503;48.544;12.142;2022-09-30T11:11:32;9.20;;;7.80;;
52608;SDS011;38503;48.544;12.142;2022-09-30T11:14:28;7.53;;;6.83;;
52608;SDS011;38503;48.544;12.142;2022-09-30T11:18:13;8.03;;;7.27;;
52608;SDS011;38503;48.544;12.142;2022-09-30T11:20:31;7.20;;;6.43;;
52608;SDS011;38503;48.544;12.142;2022-09-30T11:25:42;8.00;;;6.70;;
52608;SDS011;38503;48.544;12.142;2022-09-30T11:28:33;7.83;;;6.57;;
52608;SDS011;38503;48.544;12.142;2022-09-30T11:39:23;7.53;;;6.83;;
52608;SDS011;38503;48.544;12.142;2022-09-30T11:44:57;6.77;;;6.03;;
52608;SDS011;38503;48.544;12.142;2022-09-30T11:53:54;6.40;;;5.80;;
52608;SDS011;38503;48.544;12.142;2022-09-30T11:56:15;6.43;;;5.73;;
52608;SDS011;38503;48.544;12.142;2022-09-30T11:59:03;6.77;;;5.93;;
52608;SDS011;38503;48.544;12.142;2022-09-30T12:01:41;10.90;;;9.73;;
52608;SDS011;38503;48.544;12.142;2022-09-30T12:04:14;6.00;;;5.50;;
52608;SDS011;38503;48.544;12.142;2022-09-30T12:07:01;6.50;;;5.90;;
52608;SDS011;38503;48.544;12.142;2022-09-30T12:10:21;7.33;;;6.37;;
52608;SDS011;38503;48.544;12.142;2022-09-30T12:12:24;7.43;;;6.83;;
52608;SDS011;38503;48.544;12.142;2022-09-30T12:15:01;6.97;;;6.37;;
52608;SDS011;38503;48.544;12.142;2022-09-30T12:20:21;5.73;;;5.13;;
52608;SDS011;38503;48.544;12.142;2022-09-30T12:23:00;6.47;;;5.20;;
52608;SDS011;38503;48.544;12.142;2022-09-30T12:25:31;4.90;;;4.30;;
52608;SDS011;38503;48.544;12.142;2022-09-30T12:42:14;3.57;;;2.87;;
52608;SDS011;38503;48.544;12.142;2022-09-30T12:48:07;4.33;;;3.30;;
52608;SDS011;38503;48.544;12.142;2022-09-30T12:50:47;4.47;;;3.20;;
52608;SDS011;38503;48.544;12.142;2022-09-30T12:53:27;4.57;;;3.93;;
52608;SDS011;38503;48.544;12.142;2022-09-30T12:56:04;4.10;;;3.30;;
52608;SDS011;38503;48.544;12.142;2022-09-30T12:58:35;6.90;;;6.10;;
52608;SDS011;38503;48.544;12.142;2022-09-30T13:01:14;4.10;;;2.33;;
52608;SDS011;38503;48.544;12.142;2022-09-30T13:06:18;4.03;;;3.60;;
52608;SDS011;38503;48.544;12.142;2022-09-30T13:08:47;3.50;;;2.93;;
52608;SDS011;38503;48.544;12.142;2022-09-30T13:19:37;4.33;;;3.93;;
52608;SDS011;38503;48.544;12.142;2022-09-30T13:27:34;4.40;;;4.00;;
52608;SDS011;38503;48.544;12.142;2022-09-30T13:32:46;4.17;;;3.77;;
52608;SDS011;38503;48.544;12.142;2022-09-30T13:43:34;5.00;;;4.50;;
52608;SDS011;38503;48.544;12.142;2022-09-30T13:46:16;5.83;;;5.00;;
52608;SDS011;38503;48.544;12.142;2022-09-30T13:49:14;6.07;;;5.47;;
52608;SDS011;38503;48.544;12.142;2022-09-30T13:51:45;8.00;;;6.27;;
52608;SDS011;38503;48.544;12.142;2022-09-30T13:54:25;5.33;;;4.80;;
52608;SDS011;38503;48.544;12.142;2022-09-30T13:56:59;4.73;;;4.27;;
52608;SDS011;38503;48.544;12.142;2022-09-30T14:04:51;7.47;;;4.20;;
52608;SDS011;38503;48.544;12.142;2022-09-30T14:18:49;5.53;;;4.50;;
52608;SDS011;38503;48.544;12.142;2022-09-30T14:21:35;6.50;;;4.50;;
52608;SDS011;38503;48.544;12.142;2022-09-30T14:32:12;5.90;;;3.90;;
52608;SDS011;38503;48.544;12.142;2022-09-30T14:34:44;4.00;;;3.70;;
52608;SDS011;38503;48.544;12.142;2022-09-30T14:37:34;4.20;;;3.80;;
52608;SDS011;38503;48.544;12.142;2022-09-30T14:40:07;4.97;;;3.47;;
52608;SDS011;38503;48.544;12.142;2022-09-30T14:42:41;4.10;;;3.33;;
52608;SDS011;38503;48.544;12.142;2022-09-30T14:45:44;5.73;;;3.53;;
52608;SDS011;38503;48.544;12.142;2022-09-30T14:48:15;3.60;;;3.10;;
52608;SDS011;38503;48.544;12.142;2022-09-30T14:50:49;7.33;;;6.50;;
52608;SDS011;38503;48.544;12.142;2022-09-30T14:53:28;6.27;;;4.83;;
52608;SDS011;38503;48.544;12.142;2022-09-30T14:55:57;4.77;;;4.20;;
52608;SDS011;38503;48.544;12.142;2022-09-30T14:58:29;5.67;;;4.40;;
52608;SDS011;38503;48.544;12.142;2022-09-30T15:03:48;6.50;;;5.83;;
52608;SDS011;38503;48.544;12.142;2022-09-30T15:06:23;5.57;;;4.67;;
52608;SDS011;38503;48.544;12.142;2022-09-30T15:08:59;5.33;;;4.67;;
52608;SDS011;38503;48.544;12.142;2022-09-30T15:11:43;4.93;;;4.43;;
52608;SDS011;38503;48.544;12.142;2022-09-30T15:14:19;5.30;;;4.80;;
52608;SDS011;38503;48.544;12.142;2022-09-30T15:16:48;4.80;;;4.37;;
52608;SDS011;38503;48.544;12.142;2022-09-30T15:21:50;5.33;;;3.60;;
52608;SDS011;38503;48.544;12.142;2022-09-30T15:24:19;7.47;;;4.43;;
52608;SDS011;38503;48.544;12.142;2022-09-30T15:26:48;5.60;;;4.50;;
52608;SDS011;38503;48.544;12.142;2022-09-30T15:29:17;5.73;;;5.20;;
52608;SDS011;38503;48.544;12.142;2022-09-30T15:31:54;5.47;;;4.70;;
52608;SDS011;38503;48.544;12.142;2022-09-30T15:34:26;8.30;;;4.70;;
52608;SDS011;38503;48.544;12.142;2022-09-30T15:36:55;4.90;;;4.43;;
52608;SDS011;38503;48.544;12.142;2022-09-30T15:39:28;4.67;;;4.13;;
52608;SDS011;38503;48.544;12.142;2022-09-30T15:42:38;5.77;;;5.03;;
52608;SDS011;38503;48.544;12.142;2022-09-30T15:50:58;6.27;;;4.30;;
52608;SDS011;38503;48.544;12.142;2022-09-30T15:55:58;5.10;;;4.60;;
52608;SDS011;38503;48.544;12.142;2022-09-30T15:58:40;5.30;;;4.80;;
52608;SDS011;38503;48.544;12.142;2022-09-30T16:01:25;6.33;;;4.67;;
52608;SDS011;38503;48.544;12.142;2022-09-30T16:03:59;5.93;;;5.20;;
52608;SDS011;38503;48.544;12.142;2022-09-30T16:09:17;5.67;;;5.17;;
52608;SDS011;38503;48.544;12.142;2022-09-30T16:11:45;6.40;;;5.40;;
52608;SDS011;38503;48.544;12.142;2022-09-30T16:17:18;6.30;;;5.43;;
52608;SDS011;38503;48.544;12.142;2022-09-30T16:20:22;6.03;;;5.43;;
52608;SDS011;38503;48.544;12.142;2022-09-30T16:22:49;6.23;;;5.00;;
52608;SDS011;38503;48.544;12.142;2022-09-30T16:30:41;7.53;;;5.40;;
52608;SDS011;38503;48.544;12.142;2022-09-30T16:33:14;5.80;;;5.20;;
52608;SDS011;38503;48.544;12.142;2022-09-30T16:35:41;6.37;;;5.30;;
52608;SDS011;38503;48.544;12.142;2022-09-30T16:38:11;6.23;;;5.63;;
52608;SDS011;38503;48.544;12.142;2022-09-30T16:40:39;6.10;;;5.13;;
52608;SDS011;38503;48.544;12.142;2022-09-30T16:43:06;6.00;;;5.17;;
52608;SDS011;38503;48.544;12.142;2022-09-30T16:45:37;6.90;;;5.17;;
52608;SDS011;38503;48.544;12.142;2022-09-30T16:48:14;6.37;;;5.63;;
52608;SDS011;38503;48.544;12.142;2022-09-30T16:53:33;9.10;;;7.27;;
52608;SDS011;38503;48.544;12.142;2022-09-30T16:56:00;7.73;;;6.93;;
52608;SDS011;38503;48.544;12.142;2022-09-30T16:58:27;7.23;;;6.53;;
52608;SDS011;38503;48.544;12.142;2022-09-30T17:00:53;6.47;;;5.80;;
52608;SDS011;38503;48.544;12.142;2022-09-30T17:03:20;7.20;;;5.43;;
52608;SDS011;38503;48.544;12.142;2022-09-30T17:05:48;6.67;;;5.73;;
52608;SDS011;38503;48.544;12.142;2022-09-30T17:08:18;6.00;;;5.47;;
52608;SDS011;38503;48.544;12.142;2022-09-30T17:10:46;6.20;;;5.60;;
52608;SDS011;38503;48.544;12.142;2022-09-30T17:13:15;9.77;;;5.83;;
52608;SDS011;38503;48.544;12.142;2022-09-30T17:15:47;10.37;;;6.67;;
52608;SDS011;38503;48.544;12.142;2022-09-30T17:18:15;9.80;;;7.33;;
52608;SDS011;38503;48.544;12.142;2022-09-30T17:20:43;10.27;;;8.20;;
52608;SDS011;38503;48.544;12.142;2022-09-30T17:23:14;9.97;;;8.70;;
52608;SDS011;38503;48.544;12.142;2022-09-30T17:25:40;10.10;;;7.70;;
52608;SDS011;38503;48.544;12.142;2022-09-30T17:28:08;12.57;;;8.43;;
52608;SDS011;38503;48.544;12.142;2022-09-30T17:30:36;7.80;;;6.20;;
52608;SDS011;38503;48.544;12.142;2022-09-30T17:33:06;8.17;;;6.63;;
52608;SDS011;38503;48.544;12.142;2022-09-30T17:35:38;8.07;;;6.83;;
52608;SDS011;38503;48.544;12.142;2022-09-30T17:38:09;9.77;;;6.80;;
52608;SDS011;38503;48.544;12.142;2022-09-30T17:40:38;10.47;;;8.17;;
52608;SDS011;38503;48.544;12.142;2022-09-30T17:43:23;8.73;;;7.83;;
52608;SDS011;38503;48.544;12.142;2022-09-30T17:45:50;10.93;;;8.70;;
52608;SDS011;38503;48.544;12.142;2022-09-30T17:48:20;9.93;;;8.57;;
52608;SDS011;38503;48.544;12.142;2022-09-30T17:50:47;10.43;;;8.03;;
52608;SDS011;38503;48.544;12.142;2022-09-30T17:53:14;9.37;;;8.40;;
52608;SDS011;38503;48.544;12.142;2022-09-30T17:55:43;11.80;;;8.43;;
52608;SDS011;38503;48.544;12.142;2022-09-30T17:58:15;8.57;;;7.70;;
52608;SDS011;38503;48.544;12.142;2022-09-30T18:00:43;10.83;;;8.00;;
52608;SDS011;38503;48.544;12.142;2022-09-30T18:03:11;9.00;;;7.47;;
52608;SDS011;38503;48.544;12.142;2022-09-30T18:05:38;10.67;;;8.37;;
52608;SDS011;38503;48.544;12.142;2022-09-30T18:08:05;11.27;;;8.60;;
52608;SDS011;38503;48.544;12.142;2022-09-30T18:10:34;12.67;;;9.23;;
52608;SDS011;38503;48.544;12.142;2022-09-30T18:13:02;13.63;;;10.70;;
52608;SDS011;38503;48.544;12.142;2022-09-30T18:15:29;11.57;;;10.07;;
52608;SDS011;38503;48.544;12.142;2022-09-30T18:17:56;14.07;;;11.00;;
52608;SDS011;38503;48.544;12.142;2022-09-30T18:20:23;12.13;;;9.70;;
52608;SDS011;38503;48.544;12.142;2022-09-30T18:22:50;12.87;;;10.37;;
52608;SDS011;38503;48.544;12.142;2022-09-30T18:25:17;14.10;;;11.83;;